Time;durP1;ratioP1;P1;durP2;ratioP2;P2;SDS_P1;SDS_P2;PMS_P1;PMS_P2;Temp;Humidity;BMP_temperature;BMP_pressure;BME280_temperature;BME280_humidity;BME280_pressure;Samples;Min_cycle;Max_cycle;Signal;HPM_P1;HPM_P2
2024/02/12 00:02:19;;;;;;;6.82;4.65;;;4.10;99.90;;;;;;4947386;28;20108;-67
2024/02/12 00:04:49;;;;;;;7.95;4.65;;;4.20;99.90;;;;;;4950845;28;20109;-65
2024/02/12 00:07:16;;;;;;;9.82;4.95;;;4.20;99.90;;;;;;4919848;28;20032;-66
2024/02/12 00:09:42;;;;;;;7.32;4.88;;;4.20;99.90;;;;;;5013429;28;20126;-66
2024/02/12 00:12:08;;;;;;;8.63;5.20;;;4.20;99.90;;;;;;4946102;28;20031;-67
2024/02/12 00:14:34;;;;;;;6.45;4.68;;;4.20;99.90;;;;;;4968142;28;20077;-68
2024/02/12 00:17:05;;;;;;;9.20;5.13;;;4.20;99.90;;;;;;4987973;28;20070;-66
2024/02/12 00:19:37;;;;;;;6.70;5.03;;;4.20;99.90;;;;;;4900379;28;20039;-66
2024/02/12 00:22:04;;;;;;;8.07;5.00;;;4.20;99.90;;;;;;4932777;28;20042;-66
2024/02/12 00:24:30;;;;;;;8.43;5.07;;;4.20;99.90;;;;;;4966039;28;21735;-66
2024/02/12 00:27:00;;;;;;;8.88;5.40;;;4.20;99.90;;;;;;4979950;28;20033;-65
2024/02/12 00:29:27;;;;;;;7.95;4.70;;;4.20;99.90;;;;;;4998798;28;20536;-68
2024/02/12 00:31:56;;;;;;;8.07;5.35;;;4.20;99.90;;;;;;4958066;28;20028;-65
2024/02/12 00:34:23;;;;;;;8.30;5.30;;;4.20;99.90;;;;;;5024916;28;20131;-66
2024/02/12 00:36:49;;;;;;;9.77;5.75;;;4.20;99.90;;;;;;5027391;28;20032;-66
2024/02/12 00:39:15;;;;;;;8.75;5.97;;;4.20;99.90;;;;;;5021698;28;20875;-66
2024/02/12 00:41:40;;;;;;;10.50;5.43;;;4.20;99.90;;;;;;4992058;28;20066;-65
2024/02/12 00:44:06;;;;;;;8.95;5.60;;;4.20;99.90;;;;;;5066256;28;21972;-65
2024/02/12 00:46:32;;;;;;;8.82;5.35;;;4.20;99.90;;;;;;5014079;28;20048;-65
2024/02/12 00:48:57;;;;;;;8.85;5.60;;;4.20;99.90;;;;;;5023503;28;20031;-66
2024/02/12 00:51:23;;;;;;;9.68;5.35;;;4.20;99.90;;;;;;5010521;28;20023;-66
2024/02/12 00:53:49;;;;;;;8.80;6.18;;;4.20;99.90;;;;;;5005889;28;20745;-66
2024/02/12 00:56:17;;;;;;;13.02;5.88;;;4.20;99.90;;;;;;5036444;28;20056;-66
2024/02/12 00:58:45;;;;;;;9.40;6.00;;;4.20;99.90;;;;;;5012753;28;20032;-65
2024/02/12 01:01:11;;;;;;;8.95;6.28;;;4.20;99.90;;;;;;5001859;28;20035;-65
2024/02/12 01:03:36;;;;;;;13.00;6.38;;;4.20;99.90;;;;;;5014624;28;20028;-66
2024/02/12 01:06:02;;;;;;;8.65;5.47;;;4.20;99.90;;;;;;4996769;28;20039;-65
2024/02/12 01:08:29;;;;;;;12.38;6.63;;;4.20;99.90;;;;;;5024697;28;20032;-67
2024/02/12 01:10:54;;;;;;;13.65;6.75;;;4.20;99.90;;;;;;5006041;28;20476;-65
2024/02/12 01:13:21;;;;;;;10.07;6.25;;;4.20;99.90;;;;;;4999220;28;20031;-65
2024/02/12 01:15:49;;;;;;;9.50;5.05;;;4.20;99.90;;;;;;5013802;28;20028;-65
2024/02/12 01:18:15;;;;;;;11.32;7.18;;;4.20;99.90;;;;;;4992414;28;20027;-66
2024/02/12 01:20:41;;;;;;;12.98;7.68;;;4.20;99.90;;;;;;4987149;28;20027;-65
2024/02/12 01:23:07;;;;;;;13.13;6.70;;;4.20;99.90;;;;;;5041192;28;20029;-66
2024/02/12 01:25:33;;;;;;;12.75;6.68;;;4.20;99.90;;;;;;5009493;28;20789;-66
2024/02/12 01:28:00;;;;;;;10.57;5.55;;;4.20;99.90;;;;;;5010473;28;20024;-66
2024/02/12 01:30:26;;;;;;;9.38;6.00;;;4.20;99.90;;;;;;4991170;28;20031;-66
2024/02/12 01:32:53;;;;;;;12.20;7.28;;;4.20;99.90;;;;;;4988691;28;21743;-66
2024/02/12 01:35:20;;;;;;;15.27;8.07;;;4.20;99.90;;;;;;5046735;28;20529;-65
2024/02/12 01:37:46;;;;;;;10.32;6.72;;;4.30;99.90;;;;;;5010364;28;20025;-65
2024/02/12 01:40:13;;;;;;;11.40;7.65;;;4.20;99.90;;;;;;4987585;28;20028;-65
2024/02/12 01:42:39;;;;;;;13.20;7.60;;;4.30;99.90;;;;;;5011994;28;20415;-66
2024/02/12 01:45:13;;;;;;;14.52;8.35;;;4.30;99.90;;;;;;4996506;28;20149;-65
2024/02/12 01:47:46;;;;;;;11.07;6.90;;;4.30;99.90;;;;;;4986829;28;20046;-66
2024/02/12 01:50:13;;;;;;;13.18;7.13;;;4.30;99.90;;;;;;5042211;28;22457;-66
2024/02/12 01:52:48;;;;;;;15.63;8.18;;;4.30;99.90;;;;;;5018621;28;20144;-65
2024/02/12 01:55:15;;;;;;;14.52;7.50;;;4.30;99.90;;;;;;4984655;28;20055;-66
2024/02/12 01:57:42;;;;;;;11.13;7.38;;;4.30;99.90;;;;;;5006053;28;20016;-65
2024/02/12 02:00:11;;;;;;;16.42;8.52;;;4.30;99.90;;;;;;4989396;28;20024;-66
2024/02/12 02:02:42;;;;;;;13.32;7.82;;;4.30;99.90;;;;;;4988689;28;20047;-67
2024/02/12 02:05:08;;;;;;;11.07;7.22;;;4.30;99.90;;;;;;5047637;28;20063;-66
2024/02/12 02:07:33;;;;;;;12.98;7.45;;;4.30;99.90;;;;;;5004088;28;20119;-65
2024/02/12 02:09:59;;;;;;;13.43;7.97;;;4.30;99.90;;;;;;5001916;28;20471;-66
2024/02/12 02:12:27;;;;;;;14.48;8.32;;;4.30;99.90;;;;;;4981129;28;20120;-66
2024/02/12 02:14:53;;;;;;;13.90;7.20;;;4.30;99.90;;;;;;4982387;28;21427;-65
2024/02/12 02:17:20;;;;;;;15.05;8.18;;;4.30;99.90;;;;;;5036588;28;20407;-66
2024/02/12 02:19:48;;;;;;;14.27;8.50;;;4.30;99.90;;;;;;5000419;28;20039;-66
2024/02/12 02:22:18;;;;;;;14.98;8.48;;;4.30;99.90;;;;;;4975402;28;20028;-65
2024/02/12 02:24:43;;;;;;;15.57;8.30;;;4.30;99.90;;;;;;4997266;28;20583;-65
2024/02/12 02:27:09;;;;;;;14.35;8.15;;;4.30;99.90;;;;;;4976120;28;20078;-66
2024/02/12 02:29:37;;;;;;;15.80;8.65;;;4.40;99.90;;;;;;4998107;28;20051;-67
2024/02/12 02:32:03;;;;;;;11.68;7.95;;;4.30;99.90;;;;;;5029976;28;20031;-65
2024/02/12 02:34:29;;;;;;;16.25;8.05;;;4.40;99.90;;;;;;4999763;28;22165;-65
2024/02/12 02:36:56;;;;;;;16.50;8.02;;;4.40;99.90;;;;;;4995161;28;20035;-66
2024/02/12 02:39:22;;;;;;;15.18;8.82;;;4.40;99.90;;;;;;4970538;28;20395;-66
2024/02/12 02:41:48;;;;;;;13.35;8.35;;;4.40;99.90;;;;;;4987061;28;20807;-66
2024/02/12 02:44:14;;;;;;;13.85;7.82;;;4.40;99.90;;;;;;5052236;28;20550;-65
2024/02/12 02:46:40;;;;;;;14.95;9.23;;;4.40;99.90;;;;;;5002259;28;20069;-65
2024/02/12 02:49:07;;;;;;;16.27;8.57;;;4.40;99.90;;;;;;4984646;28;20020;-67
2024/02/12 02:51:35;;;;;;;14.90;8.55;;;4.40;99.90;;;;;;4985052;28;20170;-66
2024/02/12 02:54:01;;;;;;;18.23;9.48;;;4.40;99.90;;;;;;4967161;28;20412;-65
2024/02/12 02:56:26;;;;;;;15.57;9.68;;;4.40;99.90;;;;;;5030758;28;20058;-67
2024/02/12 02:58:52;;;;;;;15.27;9.32;;;4.40;99.90;;;;;;4988537;28;20055;-67
2024/02/12 03:01:20;;;;;;;16.80;9.05;;;4.50;99.90;;;;;;4988273;28;20032;-66
2024/02/12 03:03:51;;;;;;;15.38;9.02;;;4.50;99.90;;;;;;5001531;28;20043;-66
2024/02/12 03:06:18;;;;;;;21.58;9.20;;;4.40;99.90;;;;;;4963171;28;20090;-66
2024/02/12 03:08:44;;;;;;;16.25;9.00;;;4.40;99.90;;;;;;4958297;28;20020;-67
2024/02/12 03:11:16;;;;;;;15.38;8.95;;;4.40;99.90;;;;;;5026080;28;21565;-68
2024/02/12 03:13:42;;;;;;;18.58;9.15;;;4.50;99.90;;;;;;4992828;28;20024;-67
2024/02/12 03:16:13;;;;;;;18.35;10.27;;;4.50;99.90;;;;;;4965508;28;20028;-69
2024/02/12 03:18:41;;;;;;;16.00;9.25;;;4.50;99.90;;;;;;4978604;28;20111;-67
2024/02/12 03:21:09;;;;;;;22.45;10.52;;;4.50;99.90;;;;;;4956619;28;20024;-66
2024/02/12 03:23:35;;;;;;;17.05;9.77;;;4.50;99.90;;;;;;4982403;28;20492;-68
2024/02/12 03:26:02;;;;;;;16.55;9.32;;;4.50;99.90;;;;;;5001545;28;20038;-66
2024/02/12 03:28:28;;;;;;;17.25;9.88;;;4.50;99.90;;;;;;4990286;28;21279;-66
2024/02/12 03:30:53;;;;;;;16.73;10.00;;;4.50;99.90;;;;;;4986128;28;20459;-68
2024/02/12 03:33:19;;;;;;;19.10;10.80;;;4.60;99.90;;;;;;4963623;28;20035;-67
2024/02/12 03:35:45;;;;;;;17.50;10.10;;;4.60;99.90;;;;;;4959245;28;20458;-67
2024/02/12 03:38:11;;;;;;;17.92;10.82;;;4.60;99.90;;;;;;5016851;28;21633;-66
2024/02/12 03:40:36;;;;;;;23.20;11.38;;;4.60;99.90;;;;;;4985884;28;20051;-66
2024/02/12 03:43:04;;;;;;;18.58;10.35;;;4.60;99.90;;;;;;4996082;28;20116;-67
2024/02/12 03:45:30;;;;;;;16.90;9.80;;;4.60;99.90;;;;;;4947031;28;20036;-66
2024/02/12 03:48:00;;;;;;;16.63;10.88;;;4.60;99.90;;;;;;4948666;28;21523;-66
2024/02/12 04:01:26;;;;;;;18.73;9.60;;;4.70;99.90;;;;;;5041459;28;20450;-66
2024/02/12 04:03:52;;;;;;;16.10;9.00;;;4.70;99.90;;;;;;5043817;28;20024;-67
2024/02/12 04:06:19;;;;;;;16.13;9.45;;;4.70;99.90;;;;;;5011493;28;20024;-67
2024/02/12 04:08:46;;;;;;;13.70;8.13;;;4.70;99.90;;;;;;5002396;28;20104;-67
2024/02/12 04:11:12;;;;;;;15.60;8.95;;;4.70;99.90;;;;;;5010044;28;21473;-67
2024/02/12 04:13:38;;;;;;;16.02;10.45;;;4.70;99.90;;;;;;5039923;28;20020;-67
2024/02/12 04:16:09;;;;;;;15.30;8.27;;;4.80;99.90;;;;;;5033652;28;20032;-67
2024/02/12 04:18:34;;;;;;;14.77;8.80;;;4.80;99.90;;;;;;5039747;28;20032;-67
2024/02/12 04:21:08;;;;;;;15.98;8.85;;;4.70;99.90;;;;;;5018181;28;20085;-67
2024/02/12 04:23:34;;;;;;;17.13;8.75;;;4.80;99.90;;;;;;5005269;28;20126;-67
2024/02/12 04:26:01;;;;;;;13.80;9.02;;;4.80;99.90;;;;;;4997052;28;20027;-67
2024/02/12 04:28:27;;;;;;;16.00;8.60;;;4.80;99.90;;;;;;5032784;28;22043;-68
2024/02/12 04:30:54;;;;;;;18.98;10.05;;;4.80;99.90;;;;;;5022281;28;20016;-67
2024/02/12 04:33:20;;;;;;;15.65;8.93;;;4.80;99.90;;;;;;5014923;28;20038;-67
2024/02/12 04:35:45;;;;;;;17.17;9.50;;;4.80;99.90;;;;;;4989209;28;20027;-67
2024/02/12 04:38:11;;;;;;;17.67;10.32;;;4.80;99.90;;;;;;5024171;28;21361;-67
2024/02/12 04:40:37;;;;;;;19.50;10.93;;;4.90;99.90;;;;;;5027056;28;20360;-68
2024/02/12 04:43:02;;;;;;;20.48;9.30;;;4.90;99.90;;;;;;5019929;28;20035;-67
2024/02/12 04:45:30;;;;;;;18.05;9.27;;;4.90;99.90;;;;;;5008572;28;20028;-67
2024/02/12 04:47:56;;;;;;;19.52;9.88;;;4.90;99.90;;;;;;5030289;28;20016;-67
2024/02/12 04:50:23;;;;;;;17.00;9.65;;;4.90;99.90;;;;;;4986254;28;20024;-67
2024/02/12 04:52:48;;;;;;;19.92;9.88;;;4.90;99.90;;;;;;5024300;28;20016;-68
2024/02/12 04:55:15;;;;;;;17.83;9.88;;;4.90;99.90;;;;;;5004952;28;20032;-67
2024/02/12 04:57:41;;;;;;;24.17;11.07;;;5.00;99.90;;;;;;5018384;28;20125;-67
2024/02/12 05:00:12;;;;;;;19.23;10.02;;;5.00;99.90;;;;;;5034854;28;20020;-68
2024/02/12 05:02:40;;;;;;;19.08;10.18;;;5.00;99.90;;;;;;4979660;28;20055;-67
2024/02/12 05:05:06;;;;;;;19.42;10.02;;;5.10;99.90;;;;;;4963901;28;20032;-65
2024/02/12 05:07:32;;;;;;;19.90;9.23;;;5.10;99.90;;;;;;5031024;28;20411;-65
2024/02/12 05:09:58;;;;;;;20.17;11.40;;;5.10;99.90;;;;;;5027570;28;20467;-65
2024/02/12 05:12:24;;;;;;;19.27;10.40;;;5.10;99.90;;;;;;4990264;28;20020;-65
2024/02/12 05:14:50;;;;;;;17.15;9.82;;;5.10;99.90;;;;;;4978260;28;20028;-66
2024/02/12 05:17:23;;;;;;;18.08;9.48;;;5.10;99.90;;;;;;4994924;28;22471;-65
2024/02/12 05:22:33;;;;;;;19.38;9.65;;;5.10;99.90;;;;;;5042253;28;20075;-65
2024/02/12 05:25:00;;;;;;;18.60;9.93;;;5.10;99.90;;;;;;5019245;28;20032;-65
2024/02/12 05:27:26;;;;;;;22.98;11.85;;;5.20;99.90;;;;;;4994489;28;20103;-65
2024/02/12 05:29:52;;;;;;;21.95;11.43;;;5.20;99.90;;;;;;4987997;28;20021;-66
2024/02/12 05:32:21;;;;;;;23.45;12.15;;;5.20;99.90;;;;;;5010026;28;20590;-65
2024/02/12 05:34:47;;;;;;;23.17;11.30;;;5.20;99.90;;;;;;5041693;28;20115;-65
2024/02/12 05:37:13;;;;;;;23.30;12.43;;;5.20;99.90;;;;;;4989080;28;20070;-65
2024/02/12 05:39:38;;;;;;;21.38;11.45;;;5.20;99.90;;;;;;5006127;28;20020;-65
2024/02/12 05:42:04;;;;;;;26.95;13.25;;;5.20;99.90;;;;;;5014484;28;20030;-65
2024/02/12 05:44:33;;;;;;;24.33;12.77;;;5.30;99.90;;;;;;4987502;28;20613;-65
2024/02/12 05:46:59;;;;;;;36.78;14.70;;;5.30;99.90;;;;;;4981108;28;20598;-66
2024/02/12 05:49:26;;;;;;;28.08;14.05;;;5.30;99.90;;;;;;5043589;28;20027;-65
2024/02/12 05:51:53;;;;;;;30.73;14.40;;;5.30;99.90;;;;;;5035386;28;20103;-65
2024/02/12 05:54:19;;;;;;;29.50;14.65;;;5.30;99.90;;;;;;5000051;28;20115;-65
2024/02/12 05:56:45;;;;;;;30.98;14.38;;;5.30;99.90;;;;;;4992159;28;20024;-65
2024/02/12 05:59:11;;;;;;;28.30;14.95;;;5.30;99.90;;;;;;4980497;28;21255;-65
2024/02/12 06:01:37;;;;;;;29.02;15.88;;;5.40;99.90;;;;;;5035821;28;20798;-65
2024/02/12 06:04:03;;;;;;;31.73;14.73;;;5.40;99.90;;;;;;5013063;28;20036;-65
2024/02/12 06:06:29;;;;;;;32.70;15.43;;;5.40;99.90;;;;;;5015236;28;20024;-66
2024/02/12 06:08:55;;;;;;;32.42;15.23;;;5.40;99.90;;;;;;5022564;28;20495;-65
2024/02/12 06:11:20;;;;;;;31.70;15.52;;;5.40;99.90;;;;;;4995190;28;20141;-65
2024/02/12 06:13:46;;;;;;;30.27;15.88;;;5.40;99.90;;;;;;5023228;28;20534;-65
2024/02/12 06:16:13;;;;;;;31.70;15.98;;;5.50;99.90;;;;;;4974887;28;20027;-66
2024/02/12 06:18:39;;;;;;;34.50;16.60;;;5.50;99.90;;;;;;5021192;28;20020;-65
2024/02/12 06:21:05;;;;;;;37.13;17.52;;;5.50;99.90;;;;;;5010391;28;20042;-65
2024/02/12 06:23:31;;;;;;;35.65;18.23;;;5.60;99.90;;;;;;4981040;28;20024;-65
2024/02/12 06:25:58;;;;;;;40.67;18.95;;;5.60;99.90;;;;;;4970743;28;20405;-66
2024/02/12 06:28:24;;;;;;;37.95;17.73;;;5.60;99.90;;;;;;5027487;28;20024;-65
2024/02/12 06:30:49;;;;;;;34.78;18.58;;;5.60;99.90;;;;;;5000665;28;21777;-65
2024/02/12 06:33:15;;;;;;;36.22;16.80;;;5.60;99.90;;;;;;5043889;28;20027;-65
2024/02/12 06:35:41;;;;;;;42.33;17.85;;;5.60;99.90;;;;;;4983975;28;20021;-65
2024/02/12 06:38:07;;;;;;;35.97;18.17;;;5.60;99.90;;;;;;4955695;28;20489;-65
2024/02/12 06:40:32;;;;;;;35.88;17.35;;;5.60;99.90;;;;;;5024405;28;20055;-65
2024/02/12 06:43:04;;;;;;;35.70;18.20;;;5.60;99.90;;;;;;5023716;28;20035;-65
2024/02/12 06:45:33;;;;;;;34.85;17.42;;;5.70;99.90;;;;;;4960577;28;20032;-67
2024/02/12 06:47:58;;;;;;;37.35;17.45;;;5.60;99.90;;;;;;5015561;28;20024;-65
2024/02/12 06:50:24;;;;;;;34.95;17.42;;;5.60;99.90;;;;;;4955247;28;20020;-65
2024/02/12 06:52:50;;;;;;;39.33;18.33;;;5.70;99.90;;;;;;5003085;28;20034;-65
2024/02/12 06:55:15;;;;;;;38.45;18.25;;;5.70;99.90;;;;;;4952911;28;20090;-66
2024/02/12 06:57:45;;;;;;;41.15;18.20;;;5.80;99.90;;;;;;5005104;28;20077;-65
2024/02/12 07:00:15;;;;;;;41.03;18.23;;;5.80;99.90;;;;;;5014636;28;20034;-65
2024/02/12 07:02:42;;;;;;;36.67;18.30;;;5.80;99.90;;;;;;5012522;28;20597;-67
2024/02/12 07:05:08;;;;;;;40.90;18.58;;;5.80;99.90;;;;;;4955971;28;20513;-65
2024/02/12 07:07:34;;;;;;;37.38;16.77;;;5.80;99.90;;;;;;5027313;28;20024;-66
2024/02/12 07:10:00;;;;;;;43.28;19.27;;;5.80;99.90;;;;;;5014624;28;20021;-68
2024/02/12 07:12:26;;;;;;;35.35;15.82;;;5.80;99.90;;;;;;4999958;28;20537;-65
2024/02/12 07:14:52;;;;;;;30.58;16.60;;;5.80;99.90;;;;;;4967904;28;20111;-65
2024/02/12 07:17:21;;;;;;;31.27;15.65;;;5.80;99.90;;;;;;4964075;28;20028;-66
2024/02/12 07:19:49;;;;;;;28.70;16.02;;;5.80;99.90;;;;;;5026435;28;20127;-65
2024/02/12 07:22:15;;;;;;;31.40;16.83;;;5.80;99.90;;;;;;4957647;28;20123;-67
2024/02/12 07:24:44;;;;;;;27.42;15.48;;;5.90;99.90;;;;;;4981907;28;21842;-66
2024/02/12 07:27:10;;;;;;;31.85;15.75;;;5.90;99.90;;;;;;5001971;28;20024;-66
2024/02/12 07:29:36;;;;;;;30.45;14.70;;;5.90;99.90;;;;;;4974196;28;20026;-66
2024/02/12 07:32:04;;;;;;;34.28;15.55;;;5.90;99.90;;;;;;4932498;28;20028;-67
2024/02/12 07:34:30;;;;;;;31.35;14.70;;;5.90;99.90;;;;;;5004051;28;20032;-66
2024/02/12 07:36:55;;;;;;;33.33;15.65;;;5.90;99.90;;;;;;4984801;28;20039;-65
2024/02/12 07:39:22;;;;;;;28.63;14.77;;;5.90;99.90;;;;;;4999341;28;20023;-65
2024/02/12 07:41:48;;;;;;;28.58;14.98;;;5.90;99.90;;;;;;4999433;28;20042;-67
2024/02/12 07:44:14;;;;;;;27.27;13.93;;;5.90;99.90;;;;;;5006687;28;20024;-65
2024/02/12 07:46:40;;;;;;;28.67;13.45;;;5.90;99.90;;;;;;5024472;28;20551;-65
2024/02/12 07:49:06;;;;;;;31.17;13.80;;;6.00;99.90;;;;;;4999590;28;20077;-66
2024/02/12 07:51:34;;;;;;;27.83;13.98;;;5.90;99.90;;;;;;4974573;28;20028;-66
2024/02/12 07:53:59;;;;;;;26.20;13.80;;;5.90;99.90;;;;;;5008243;28;20056;-65
2024/02/12 07:56:26;;;;;;;28.33;14.45;;;6.00;99.90;;;;;;4996376;28;20662;-66
2024/02/12 07:58:52;;;;;;;30.58;15.10;;;6.00;99.90;;;;;;5013772;28;20027;-66
2024/02/12 08:01:17;;;;;;;30.45;13.55;;;6.00;99.90;;;;;;4999801;28;20021;-66
2024/02/12 08:03:43;;;;;;;23.75;12.20;;;6.10;99.90;;;;;;5008340;28;20662;-65
2024/02/12 08:06:12;;;;;;;21.73;12.48;;;6.00;99.90;;;;;;4985699;28;20395;-66
2024/02/12 08:08:37;;;;;;;26.98;12.38;;;6.10;99.90;;;;;;4983565;28;20136;-65
2024/02/12 08:11:03;;;;;;;21.98;12.65;;;6.10;99.90;;;;;;4986784;28;20027;-65
2024/02/12 08:13:29;;;;;;;21.15;11.70;;;6.10;99.90;;;;;;5020803;28;20043;-66
2024/02/12 08:15:54;;;;;;;23.02;11.27;;;6.10;99.90;;;;;;4998979;28;20052;-65
2024/02/12 08:18:21;;;;;;;19.38;11.52;;;6.20;99.90;;;;;;5003466;28;20080;-66
2024/02/12 08:20:46;;;;;;;24.83;11.48;;;6.20;99.90;;;;;;4974315;28;20213;-65
2024/02/12 08:23:12;;;;;;;27.92;10.70;;;6.20;99.90;;;;;;5017766;28;20047;-66
2024/02/12 08:25:38;;;;;;;21.73;10.65;;;6.20;99.90;;;;;;5019018;28;20035;-66
2024/02/12 08:28:04;;;;;;;22.63;10.68;;;6.30;99.90;;;;;;4952681;28;20020;-66
2024/02/12 08:30:31;;;;;;;21.08;11.13;;;6.30;99.90;;;;;;5001122;28;20036;-66
2024/02/12 08:32:59;;;;;;;20.25;10.75;;;6.30;99.90;;;;;;5027317;28;20111;-65
2024/02/12 08:35:24;;;;;;;24.95;12.05;;;6.30;99.90;;;;;;4999641;28;20106;-65
2024/02/12 08:37:50;;;;;;;18.52;10.15;;;6.30;99.90;;;;;;5013287;28;20527;-65
2024/02/12 08:40:17;;;;;;;23.15;11.35;;;6.40;99.90;;;;;;4977122;28;20036;-67
2024/02/12 08:42:45;;;;;;;24.98;11.75;;;6.40;99.90;;;;;;5029458;28;20028;-65
2024/02/12 08:45:11;;;;;;;23.33;10.93;;;6.40;99.90;;;;;;5003123;28;20111;-66
2024/02/12 08:47:40;;;;;;;15.68;8.98;;;6.40;99.90;;;;;;4994209;28;20039;-65
2024/02/12 08:50:07;;;;;;;21.70;10.27;;;6.40;99.90;;;;;;4978930;28;20028;-66
2024/02/12 08:52:33;;;;;;;20.48;10.40;;;6.40;99.90;;;;;;4990951;28;22313;-66
2024/02/12 08:55:02;;;;;;;23.75;11.88;;;6.40;99.90;;;;;;5001170;28;20020;-65
2024/02/12 08:57:28;;;;;;;20.48;10.20;;;6.50;99.90;;;;;;4995495;28;20028;-66
2024/02/12 08:59:54;;;;;;;16.70;9.38;;;6.50;99.90;;;;;;5012826;28;20031;-65
2024/02/12 09:02:21;;;;;;;19.08;10.85;;;6.50;99.90;;;;;;5017340;28;20487;-65
2024/02/12 09:04:48;;;;;;;18.98;9.80;;;6.50;99.90;;;;;;5023293;28;20092;-65
2024/02/12 09:07:13;;;;;;;20.10;10.75;;;6.50;99.90;;;;;;4992521;28;20028;-66
2024/02/12 09:09:39;;;;;;;16.35;9.90;;;6.50;99.90;;;;;;5003758;28;20070;-65
2024/02/12 09:12:05;;;;;;;19.83;10.48;;;6.50;99.90;;;;;;5055725;28;20078;-65
2024/02/12 09:14:31;;;;;;;21.65;11.73;;;6.50;99.90;;;;;;5020846;28;20035;-64
2024/02/12 09:16:57;;;;;;;21.05;11.27;;;6.60;99.90;;;;;;5013743;28;20024;-64
2024/02/12 09:19:23;;;;;;;30.58;10.93;;;6.60;99.90;;;;;;5011671;28;20114;-65
2024/02/12 09:21:48;;;;;;;19.75;9.95;;;6.60;99.90;;;;;;5000008;28;22704;-64
2024/02/12 09:24:14;;;;;;;19.50;10.50;;;6.60;99.90;;;;;;5065958;28;20020;-65
2024/02/12 09:26:40;;;;;;;16.65;10.02;;;6.70;99.90;;;;;;5007739;28;20652;-64
2024/02/12 09:29:06;;;;;;;19.92;10.85;;;6.70;99.90;;;;;;5010233;28;20531;-66
2024/02/12 09:31:33;;;;;;;21.92;10.73;;;6.70;99.90;;;;;;5018723;28;20024;-65
2024/02/12 09:34:01;;;;;;;18.58;10.48;;;6.70;99.90;;;;;;5012032;28;20024;-65
2024/02/12 09:36:28;;;;;;;25.13;11.02;;;6.70;99.90;;;;;;5039956;28;20121;-67
2024/02/12 09:38:53;;;;;;;20.02;10.48;;;6.70;99.90;;;;;;4945814;28;20126;-65
2024/02/12 09:41:26;;;;;;;20.70;10.13;;;6.70;99.90;;;;;;5017706;28;20496;-65
2024/02/12 09:43:53;;;;;;;19.02;10.70;;;6.70;99.90;;;;;;5017842;28;20051;-64
2024/02/12 09:46:19;;;;;;;19.33;10.18;;;6.80;99.90;;;;;;5002989;28;20016;-64
2024/02/12 09:48:46;;;;;;;18.67;10.57;;;6.80;99.90;;;;;;4992408;28;20025;-66
2024/02/12 09:51:14;;;;;;;19.30;10.27;;;6.80;99.90;;;;;;5049907;28;20100;-65
2024/02/12 09:53:42;;;;;;;23.17;10.32;;;6.80;99.90;;;;;;5016431;28;20031;-64
2024/02/12 09:56:08;;;;;;;18.42;10.40;;;6.90;99.90;;;;;;5005090;28;20041;-66
2024/02/12 09:58:33;;;;;;;17.10;9.68;;;6.90;99.90;;;;;;5013677;28;20720;-65
2024/02/12 10:01:03;;;;;;;18.73;9.00;;;6.90;99.90;;;;;;5009203;28;20040;-65
2024/02/12 10:03:28;;;;;;;14.25;9.38;;;6.90;99.90;;;;;;5034627;28;20028;-66
2024/02/12 10:05:54;;;;;;;14.05;8.63;;;7.00;99.90;;;;;;5026270;28;20020;-66
2024/02/12 10:08:24;;;;;;;16.17;9.05;;;7.00;99.90;;;;;;5009708;28;20034;-65
2024/02/12 10:10:52;;;;;;;14.23;8.75;;;7.00;99.90;;;;;;5025462;28;20027;-65
2024/02/12 10:13:19;;;;;;;19.02;10.82;;;7.10;99.90;;;;;;4992731;28;20024;-65
2024/02/12 10:15:49;;;;;;;15.23;9.10;;;7.10;99.90;;;;;;4993909;28;20664;-65
2024/02/12 10:18:16;;;;;;;19.38;10.27;;;7.10;99.90;;;;;;5040694;28;20020;-65
2024/02/12 10:20:45;;;;;;;15.70;9.85;;;7.10;99.90;;;;;;5014085;28;20052;-65
2024/02/12 10:23:19;;;;;;;19.13;9.98;;;7.10;99.90;;;;;;4989263;28;20020;-65
2024/02/12 10:25:50;;;;;;;16.20;8.60;;;7.20;99.90;;;;;;5016261;28;20597;-64
2024/02/12 10:28:17;;;;;;;15.63;9.35;;;7.20;99.90;;;;;;4993084;28;20024;-65
2024/02/12 10:30:47;;;;;;;17.27;9.63;;;7.30;99.90;;;;;;4996119;28;20020;-64
2024/02/12 10:33:14;;;;;;;15.32;9.98;;;7.30;99.90;;;;;;5041237;28;21805;-64
2024/02/12 10:35:43;;;;;;;19.60;10.45;;;7.30;99.90;;;;;;5010683;28;20026;-65
2024/02/12 10:38:11;;;;;;;17.00;9.43;;;7.40;99.90;;;;;;4992366;28;20024;-66
2024/02/12 10:41:03;;;;;;;14.48;9.00;;;7.30;99.90;;;;;;5020874;28;20036;-64
2024/02/12 10:43:32;;;;;;;15.48;9.40;;;7.40;99.90;;;;;;4975337;28;20089;-65
2024/02/12 10:45:59;;;;;;;16.15;8.75;;;7.40;99.90;;;;;;4979833;28;22437;-64
2024/02/12 10:48:27;;;;;;;17.63;9.27;;;7.40;99.90;;;;;;5059827;28;20048;-64
2024/02/12 10:50:55;;;;;;;14.98;8.35;;;7.40;99.90;;;;;;4994591;28;20642;-66
2024/02/12 10:53:23;;;;;;;17.95;9.85;;;7.50;99.90;;;;;;5007699;28;20024;-64
2024/02/12 10:55:50;;;;;;;23.33;9.77;;;7.40;99.90;;;;;;5008937;28;20103;-64
2024/02/12 10:58:16;;;;;;;17.58;9.93;;;7.50;99.90;;;;;;4977026;28;20016;-64
2024/02/12 11:00:53;;;;;;;14.25;9.13;;;7.50;99.90;;;;;;4978346;28;20039;-65
2024/02/12 11:03:27;;;;;;;21.02;9.93;;;7.50;99.90;;;;;;5031086;28;20020;-64
2024/02/12 11:05:53;;;;;;;16.42;9.70;;;7.60;99.90;;;;;;4992924;28;20028;-65
2024/02/12 11:08:23;;;;;;;17.83;11.60;;;7.60;99.90;;;;;;5002479;28;20099;-64
2024/02/12 11:10:50;;;;;;;17.08;9.88;;;7.50;99.90;;;;;;4994105;28;20016;-64
2024/02/12 11:13:16;;;;;;;16.10;10.90;;;7.60;99.90;;;;;;4996529;28;20030;-63
2024/02/12 11:15:52;;;;;;;19.63;11.75;;;7.60;99.90;;;;;;4980000;28;20048;-64
2024/02/12 11:18:20;;;;;;;17.55;11.27;;;7.60;99.90;;;;;;5023498;28;20069;-64
2024/02/12 11:20:55;;;;;;;20.98;11.70;;;7.60;99.90;;;;;;5000355;28;20077;-63
2024/02/12 11:23:24;;;;;;;19.80;11.43;;;7.60;99.90;;;;;;5000695;28;20468;-64
2024/02/12 11:25:55;;;;;;;18.65;12.32;;;7.60;99.90;;;;;;5000247;28;20166;-64
2024/02/12 11:28:23;;;;;;;22.45;12.30;;;7.60;99.90;;;;;;4966830;28;20016;-63
2024/02/12 11:30:49;;;;;;;18.40;11.00;;;7.60;99.90;;;;;;4965824;28;21438;-64
2024/02/12 11:33:15;;;;;;;19.25;11.98;;;7.60;99.90;;;;;;5024783;28;21570;-64
2024/02/12 11:35:41;;;;;;;22.67;12.05;;;7.60;99.90;;;;;;4995086;28;20065;-64
2024/02/12 11:38:09;;;;;;;21.15;11.43;;;7.60;99.90;;;;;;5014659;28;20504;-65
2024/02/12 11:40:35;;;;;;;19.55;12.38;;;7.70;99.90;;;;;;4986344;28;20048;-64
2024/02/12 11:43:01;;;;;;;26.35;13.35;;;7.70;99.90;;;;;;4959865;28;20695;-64
2024/02/12 11:45:27;;;;;;;20.88;11.68;;;7.70;99.90;;;;;;5022152;28;20041;-63
2024/02/12 11:47:53;;;;;;;24.90;12.27;;;7.70;99.90;;;;;;4976548;28;20029;-65
2024/02/12 11:50:26;;;;;;;20.90;12.18;;;7.80;99.90;;;;;;4992314;28;20016;-64
2024/02/12 11:52:53;;;;;;;20.33;11.98;;;7.70;99.90;;;;;;4988515;28;21655;-64
2024/02/12 11:55:19;;;;;;;19.63;11.80;;;7.80;99.90;;;;;;4962561;28;20036;-65
2024/02/12 11:57:46;;;;;;;17.75;11.75;;;7.80;99.90;;;;;;4961553;28;20432;-64
2024/02/12 12:00:22;;;;;;;22.60;13.45;;;7.90;99.90;;;;;;5016738;28;21467;-64
2024/02/12 12:02:51;;;;;;;21.55;13.95;;;7.90;99.90;;;;;;4988729;28;20024;-63
2024/02/12 12:05:25;;;;;;;19.80;11.73;;;7.90;99.90;;;;;;4982811;28;20492;-63
2024/02/12 12:07:52;;;;;;;23.40;13.73;;;7.90;99.90;;;;;;4983507;28;20101;-63
2024/02/12 12:10:28;;;;;;;25.52;14.30;;;7.80;99.90;;;;;;4975304;28;20031;-64
2024/02/12 12:12:58;;;;;;;24.73;14.15;;;7.80;99.90;;;;;;4956643;28;21513;-64
2024/02/12 12:15:23;;;;;;;22.92;13.07;;;7.80;99.90;;;;;;5014499;28;20052;-63
2024/02/12 12:17:49;;;;;;;20.88;13.93;;;7.80;99.90;;;;;;4990257;28;20128;-63
2024/02/12 12:20:18;;;;;;;23.80;12.70;;;7.90;99.90;;;;;;4961306;28;20020;-63
2024/02/12 12:22:45;;;;;;;23.63;13.93;;;7.80;99.90;;;;;;4996008;28;20471;-63
2024/02/12 12:25:18;;;;;;;21.70;12.57;;;7.80;99.90;;;;;;4948780;28;20444;-63
2024/02/12 12:27:44;;;;;;;24.02;14.40;;;7.80;99.90;;;;;;4972976;28;20023;-64
2024/02/12 12:30:14;;;;;;;26.85;15.07;;;7.80;99.90;;;;;;5031848;28;20024;-63
2024/02/12 12:32:44;;;;;;;22.52;12.35;;;7.80;99.90;;;;;;4982298;28;20460;-63
2024/02/12 12:35:10;;;;;;;18.60;12.45;;;7.70;99.90;;;;;;4964761;28;20045;-65
2024/02/12 12:37:38;;;;;;;25.08;14.35;;;7.70;99.90;;;;;;4975344;28;20027;-63
2024/02/12 12:40:11;;;;;;;22.92;13.32;;;7.70;99.90;;;;;;4946619;28;20467;-63
2024/02/12 12:42:38;;;;;;;24.20;15.20;;;7.70;99.90;;;;;;4989889;28;20067;-66
2024/02/12 12:45:07;;;;;;;23.42;14.57;;;7.70;99.90;;;;;;5003746;28;20074;-63
2024/02/12 12:47:39;;;;;;;21.25;13.32;;;7.70;99.90;;;;;;4981451;28;20055;-64
2024/02/12 12:50:09;;;;;;;26.38;14.43;;;7.60;99.90;;;;;;4979655;28;20416;-64
2024/02/12 12:52:35;;;;;;;23.42;13.95;;;7.60;99.90;;;;;;4985800;28;20020;-64
2024/02/12 12:55:04;;;;;;;24.05;14.55;;;7.70;99.90;;;;;;4941741;28;22050;-64
2024/02/12 12:57:31;;;;;;;21.88;13.95;;;7.70;99.90;;;;;;5003548;28;20036;-66